createdAt,value
2018-07-28T00:02:22.106Z,61.96
2018-07-28T00:05:26.768Z,62.75
2018-07-28T00:08:32.286Z,62.65
2018-07-28T00:11:38.708Z,62.72
2018-07-28T00:14:44.375Z,62.51
2018-07-28T00:17:48.742Z,62.35
2018-07-28T00:20:53.433Z,62.05
2018-07-28T00:23:59.225Z,62.02
2018-07-28T00:27:05.814Z,61.56
2018-07-28T00:30:12.780Z,62.33
2018-07-28T00:33:17.509Z,62.33
2018-07-28T00:36:23.187Z,61.93
2018-07-28T00:39:29.121Z,62.59
2018-07-28T00:42:33.963Z,62.23
2018-07-28T00:45:39.197Z,62.41
2018-07-28T00:48:47.407Z,62.69
2018-07-28T00:51:51.509Z,62.45
2018-07-28T00:54:57.086Z,62.50
2018-07-28T00:58:02.572Z,63.27
2018-07-28T01:01:08.043Z,62.67
2018-07-28T01:04:18.040Z,63.23
2018-07-28T01:07:22.920Z,64.05
2018-07-28T01:10:28.270Z,63.53
2018-07-28T01:13:41.121Z,65.26
2018-07-28T01:16:48.600Z,64.73
2018-07-28T01:19:56.523Z,64.42
2018-07-28T01:23:00.831Z,64.76
2018-07-28T01:26:06.856Z,64.48
2018-07-28T01:29:16.453Z,63.84
2018-07-28T01:32:23.474Z,64.14
2018-07-28T01:35:31.024Z,63.91
2018-07-28T01:38:38.311Z,63.50
2018-07-28T01:41:45.497Z,64.02
2018-07-28T01:44:51.620Z,67.36
2018-07-28T01:48:00.843Z,66.54
2018-07-28T01:51:06.824Z,67.06
2018-07-28T01:54:12.170Z,68.64
2018-07-28T01:57:18.249Z,66.71
2018-07-28T02:00:24.258Z,66.29
2018-07-28T02:03:31.337Z,65.82
2018-07-28T02:06:37.529Z,65.26
2018-07-28T02:09:44.495Z,65.50
2018-07-28T02:12:52.529Z,64.39
2018-07-28T02:15:58.818Z,64.53
2018-07-28T02:19:03.213Z,65.55
2018-07-28T02:22:10.388Z,65.06
2018-07-28T02:25:15.417Z,64.80
2018-07-28T02:28:22.057Z,64.70
2018-07-28T02:31:26.077Z,64.62
2018-07-28T02:34:32.751Z,65.28
2018-07-28T02:37:41.687Z,65.13
2018-07-28T02:40:52.052Z,65.42
2018-07-28T02:44:01.025Z,65.98
2018-07-28T02:47:05.939Z,66.05
2018-07-28T03:10:49.113Z,66.12
2018-07-28T03:13:54.207Z,65.63
2018-07-28T03:16:59.705Z,65.68
2018-07-28T03:20:04.992Z,66.42
2018-07-28T03:23:11.358Z,66.31
2018-07-28T03:26:19.014Z,67.00
2018-07-28T03:29:27.959Z,65.90
2018-07-28T03:32:33.028Z,66.61
2018-07-28T03:35:39.101Z,66.64
2018-07-28T03:39:04.713Z,65.93
2018-07-28T03:42:12.626Z,66.13
2018-07-28T03:45:19.906Z,66.30
2018-07-28T03:48:29.170Z,66.46
2018-07-28T03:51:34.240Z,66.10
2018-07-28T03:54:40.063Z,67.10
2018-07-28T03:57:49.181Z,67.30
2018-07-28T04:00:55.267Z,66.39
2018-07-28T04:04:03.844Z,66.87
2018-07-28T04:07:10.356Z,65.73
2018-07-28T04:15:46.122Z,66.40
2018-07-28T04:22:22.786Z,67.48
2018-07-28T04:25:29.050Z,66.60
2018-07-28T04:49:04.029Z,68.05
2018-07-28T04:52:10.370Z,68.45
2018-07-28T05:14:55.972Z,69.81
2018-07-28T05:18:02.535Z,69.40
2018-07-28T05:21:07.696Z,68.87
2018-07-28T05:24:20.345Z,68.50
2018-07-28T05:27:26.286Z,69.15
2018-07-28T05:50:56.921Z,68.27
2018-07-28T05:54:00.401Z,67.95
2018-07-28T05:57:07.072Z,68.47
2018-07-28T06:00:19.369Z,68.26
2018-07-28T06:03:38.296Z,68.09
2018-07-28T06:06:49.259Z,68.11
2018-07-28T06:09:54.593Z,67.52
2018-07-28T06:13:05.040Z,67.58
2018-07-28T06:16:17.036Z,67.61
2018-07-28T06:19:22.688Z,68.14
2018-07-28T06:22:33.161Z,68.39
2018-07-28T06:25:37.294Z,67.25
2018-07-28T06:28:42.507Z,66.71
2018-07-28T06:31:48.316Z,66.99
2018-07-28T06:34:52.128Z,67.13
2018-07-28T06:37:58.343Z,65.72
2018-07-28T06:41:02.201Z,66.26
2018-07-28T06:44:06.064Z,65.40
2018-07-28T06:47:10.229Z,65.30
2018-07-28T06:50:18.899Z,64.57
2018-07-28T06:53:23.835Z,64.20
2018-07-28T06:56:29.905Z,63.35
2018-07-28T06:59:34.176Z,64.08
2018-07-28T07:02:39.155Z,62.65
2018-07-28T07:05:47.412Z,62.18
2018-07-28T07:08:56.919Z,60.37
2018-07-28T07:32:42.122Z,58.44
2018-07-28T07:35:53.978Z,58.09
2018-07-28T07:38:57.874Z,58.28
2018-07-28T07:42:01.787Z,57.81
2018-07-28T07:45:06.146Z,58.18
2018-07-28T07:48:12.134Z,56.72
2018-07-28T07:51:17.907Z,56.53
2018-07-28T07:54:22.952Z,56.37
2018-07-28T07:57:50.316Z,55.76
2018-07-28T08:00:55.655Z,56.25
2018-07-28T08:04:00.733Z,55.02
2018-07-28T08:07:04.707Z,54.24
2018-07-28T08:10:10.974Z,54.42
2018-07-28T08:13:40.315Z,53.87
2018-07-28T08:16:45.851Z,52.51
2018-07-28T08:19:50.442Z,51.94
2018-07-28T08:22:57.553Z,51.68
2018-07-28T08:26:08.536Z,51.86
2018-07-28T08:29:18.782Z,51.80
2018-07-28T08:32:24.433Z,50.78
2018-07-28T08:35:30.041Z,50.42
2018-07-28T08:38:36.754Z,50.08
2018-07-28T08:41:43.584Z,49.56
2018-07-28T08:44:51.846Z,49.38
2018-07-28T08:47:57.397Z,49.84
2018-07-28T08:51:03.671Z,49.83
2018-07-28T08:54:14.153Z,48.97
2018-07-28T09:17:06.000Z,47.13
2018-07-28T09:20:12.990Z,47.56
2018-07-28T09:23:18.137Z,46.66
2018-07-28T09:26:23.311Z,46.05
2018-07-28T09:29:28.808Z,44.91
2018-07-28T09:32:33.848Z,45.19
2018-07-28T09:35:37.869Z,45.77
2018-07-28T09:38:48.540Z,44.50
2018-07-28T09:41:52.794Z,44.36
2018-07-28T09:44:57.649Z,44.81
2018-07-28T09:48:04.876Z,45.92
2018-07-28T09:51:10.445Z,45.34
2018-07-28T09:54:15.861Z,45.29
2018-07-28T09:57:20.025Z,45.70
2018-07-28T10:00:29.056Z,45.00
2018-07-28T10:03:33.869Z,43.44
2018-07-28T10:26:40.893Z,41.62
2018-07-28T10:29:45.517Z,42.24
2018-07-28T10:32:50.427Z,42.16
2018-07-28T10:53:11.881Z,40.33
2018-07-28T10:56:18.525Z,40.50
2018-07-28T10:59:24.274Z,39.35
2018-07-28T11:02:29.385Z,38.92
2018-07-28T11:05:36.154Z,39.13
2018-07-28T11:08:42.818Z,38.58
2018-07-28T11:11:46.699Z,38.59
2018-07-28T11:14:55.265Z,37.94
2018-07-28T11:18:00.397Z,39.50
2018-07-28T11:21:05.280Z,37.33
2018-07-28T11:24:09.141Z,37.43
2018-07-28T11:28:49.259Z,37.91
2018-07-28T11:32:11.204Z,37.50
2018-07-28T11:38:53.089Z,38.67
2018-07-28T11:42:08.312Z,38.76
2018-07-28T11:45:16.041Z,38.92
2018-07-28T11:48:25.996Z,39.20
2018-07-28T11:51:43.626Z,37.37
2018-07-28T12:12:07.425Z,37.04
2018-07-28T12:32:28.647Z,38.70
2018-07-28T12:35:39.473Z,38.03
2018-07-28T12:38:46.916Z,36.88
2018-07-28T12:41:52.841Z,38.12
2018-07-28T12:44:58.778Z,36.48
2018-07-28T12:48:09.519Z,36.16
2018-07-28T12:51:27.257Z,35.44
2018-07-28T12:54:40.081Z,36.66
2018-07-28T12:57:46.908Z,36.73
2018-07-28T13:00:56.495Z,35.42
2018-07-28T13:04:02.533Z,35.56
2018-07-28T13:07:14.496Z,36.69
2018-07-28T13:10:28.669Z,35.34
2018-07-28T13:13:34.982Z,35.29
2018-07-28T13:16:47.444Z,35.33
2018-07-28T14:54:10.180Z,36.79
2018-07-28T14:57:15.734Z,37.03
2018-07-28T15:00:20.272Z,35.29
2018-07-28T15:03:26.308Z,34.71
2018-07-28T15:06:34.566Z,34.00
2018-07-28T15:09:40.393Z,34.14
2018-07-28T15:12:47.542Z,33.47
2018-07-28T15:15:53.624Z,34.13
2018-07-28T15:18:58.186Z,35.03
2018-07-28T15:22:03.990Z,35.75
2018-07-28T15:25:12.400Z,35.79
2018-07-28T15:49:02.453Z,37.59
2018-07-28T15:52:11.738Z,37.88
2018-07-28T15:55:19.526Z,37.30
2018-07-28T15:58:31.523Z,36.89
2018-07-28T16:01:44.175Z,37.93
2018-07-28T16:04:57.121Z,35.60
2018-07-28T16:08:02.721Z,35.18
2018-07-28T16:11:12.466Z,36.48
2018-07-28T16:14:31.901Z,34.49
2018-07-28T16:17:44.977Z,35.06
2018-07-28T16:21:01.129Z,34.79
2018-07-28T16:24:16.874Z,34.81
2018-07-28T16:27:26.844Z,36.26
2018-07-28T16:30:36.023Z,36.18
2018-07-28T16:33:51.606Z,36.15
2018-07-28T16:36:57.641Z,36.84
2018-07-28T16:40:19.016Z,36.62
2018-07-28T16:43:41.315Z,36.36
2018-07-28T16:47:08.588Z,36.61
2018-07-28T16:50:24.630Z,36.27
2018-07-28T16:53:47.218Z,36.32
2018-07-28T17:28:28.374Z,40.45
2018-07-28T17:31:34.791Z,40.72
2018-07-28T17:34:39.694Z,41.76
2018-07-28T17:38:01.950Z,41.94
2018-07-28T17:44:51.375Z,44.12
2018-07-28T17:52:35.848Z,41.59
2018-07-28T17:55:44.507Z,41.15
2018-07-28T18:39:24.980Z,53.33
2018-07-28T18:42:46.055Z,55.79
2018-07-28T18:45:59.569Z,56.28
2018-07-28T18:52:39.873Z,58.54
2018-07-28T18:55:44.445Z,57.87
2018-07-28T19:02:13.886Z,56.80
2018-07-28T19:05:18.636Z,55.98
2018-07-28T19:08:22.879Z,56.22
2018-07-28T19:11:33.486Z,60.94
2018-07-28T19:14:48.944Z,58.71
2018-07-28T19:18:01.330Z,56.89
2018-07-28T19:21:14.671Z,58.25
2018-07-28T19:24:19.836Z,58.95
2018-07-28T19:27:32.516Z,58.96
2018-07-28T19:30:41.802Z,57.29
2018-07-28T19:33:49.692Z,57.45
2018-07-28T19:36:58.593Z,56.18
2018-07-28T19:40:19.394Z,57.23
2018-07-28T19:43:25.481Z,56.61
2018-07-28T19:46:31.966Z,55.76
2018-07-28T19:49:49.355Z,56.56
2018-07-28T19:52:54.422Z,57.45
2018-07-28T19:56:03.255Z,57.67
2018-07-28T19:59:20.151Z,60.96
2018-07-28T20:02:24.684Z,62.80
2018-07-28T20:05:36.972Z,63.14
2018-07-28T20:08:44.811Z,62.20
2018-07-28T20:11:49.929Z,61.43
2018-07-28T20:14:53.717Z,63.98
2018-07-28T20:17:57.393Z,65.32
2018-07-28T20:21:08.507Z,63.72
2018-07-28T20:24:16.549Z,63.52
2018-07-28T20:27:21.118Z,63.37
2018-07-28T20:30:26.641Z,65.03
2018-07-28T20:33:31.807Z,66.25
2018-07-28T20:36:36.948Z,67.16
2018-07-28T20:39:49.366Z,67.93
2018-07-28T20:42:53.190Z,65.98
2018-07-28T20:45:57.920Z,66.33
2018-07-28T20:49:03.468Z,68.89
2018-07-28T20:52:09.761Z,66.13
2018-07-28T20:55:15.635Z,66.17
2018-07-28T20:58:36.496Z,65.02
2018-07-28T21:01:47.708Z,64.63
2018-07-28T21:04:51.387Z,64.47
2018-07-28T21:07:57.146Z,64.91
2018-07-28T21:11:03.396Z,64.01
2018-07-28T21:14:07.286Z,63.90
2018-07-28T21:17:13.614Z,63.16
2018-07-28T21:20:19.540Z,61.22
2018-07-28T21:23:24.605Z,61.39
2018-07-28T21:26:33.862Z,62.91
2018-07-28T21:29:41.905Z,61.93
2018-07-28T21:32:47.333Z,62.30
2018-07-28T21:35:53.945Z,61.89
2018-07-28T21:38:57.867Z,61.53
2018-07-28T21:42:04.450Z,61.38
2018-07-28T21:45:09.058Z,61.12
2018-07-28T21:48:13.066Z,62.47
2018-07-28T21:51:19.158Z,62.38
2018-07-28T21:54:29.496Z,62.70
2018-07-28T21:57:34.952Z,62.59
2018-07-28T22:00:45.828Z,63.87
2018-07-28T22:03:53.626Z,63.73
2018-07-28T22:07:11.872Z,63.33
2018-07-28T22:10:17.061Z,62.39
2018-07-28T22:13:21.044Z,62.68
2018-07-28T22:16:28.468Z,63.42
2018-07-28T22:19:33.263Z,63.08
2018-07-28T22:22:39.609Z,62.66
2018-07-28T22:25:44.647Z,65.66
2018-07-28T22:28:55.987Z,66.83
2018-07-28T22:32:04.500Z,64.97
2018-07-28T22:35:08.225Z,65.97
2018-07-28T22:38:20.276Z,65.83
2018-07-28T22:41:24.045Z,64.51
2018-07-28T22:44:28.801Z,65.51
2018-07-28T22:47:32.454Z,64.83
2018-07-28T22:50:39.598Z,65.74
2018-07-28T22:53:43.421Z,66.62
2018-07-28T22:56:49.821Z,65.01
2018-07-28T22:59:55.104Z,65.33
2018-07-28T23:03:00.931Z,68.12
2018-07-28T23:06:16.222Z,66.91
2018-07-28T23:09:21.997Z,66.34
2018-07-28T23:12:29.391Z,66.60
2018-07-28T23:15:35.518Z,66.96
2018-07-28T23:18:42.921Z,67.56
2018-07-28T23:21:48.299Z,68.10
2018-07-28T23:24:54.347Z,68.00
2018-07-28T23:28:00.766Z,67.16
2018-07-28T23:31:05.087Z,68.09
2018-07-28T23:34:09.310Z,67.84
2018-07-28T23:37:14.361Z,68.69
2018-07-28T23:40:19.602Z,67.45
2018-07-28T23:43:24.732Z,66.89
2018-07-28T23:46:28.804Z,66.16
2018-07-28T23:49:34.292Z,65.88
2018-07-28T23:52:38.661Z,66.48
2018-07-28T23:55:45.042Z,66.54
2018-07-28T23:58:51.775Z,66.77
